Time;durP1;ratioP1;P1;durP2;ratioP2;P2;SDS_P1;SDS_P2;PMS_P1;PMS_P2;Temp;Humidity;BMP_temperature;BMP_pressure;BME280_temperature;BME280_humidity;BME280_pressure;Samples;Min_cycle;Max_cycle;Signal;HPM_P1;HPM_P2
2024/01/15 00:02:07;;;;;;;16.65;1.90;;;2.20;99.90;;;;;;5111008;28;20078;-59
2024/01/15 00:04:40;;;;;;;14.65;1.65;;;1.80;99.90;;;;;;5111144;28;20056;-59
2024/01/15 00:07:06;;;;;;;10.50;1.30;;;2.10;99.90;;;;;;5111739;28;20486;-59
2024/01/15 00:09:32;;;;;;;15.32;1.98;;;2.00;99.90;;;;;;5110791;28;20382;-59
2024/01/15 00:11:59;;;;;;;10.35;2.10;;;1.90;99.90;;;;;;5111682;28;20028;-58
2024/01/15 00:14:25;;;;;;;16.77;1.50;;;2.20;99.90;;;;;;5111140;28;20038;-59
2024/01/15 00:16:51;;;;;;;11.13;1.17;;;2.10;99.90;;;;;;5111328;28;20031;-60
2024/01/15 00:19:17;;;;;;;16.25;1.80;;;1.80;99.90;;;;;;5026728;28;20082;-60
2024/01/15 00:21:44;;;;;;;12.52;1.23;;;1.80;99.90;;;;;;5028057;28;20125;-60
2024/01/15 00:24:10;;;;;;;13.43;1.40;;;2.20;99.90;;;;;;5072662;28;20994;-59
2024/01/15 00:26:35;;;;;;;7.60;1.30;;;2.20;99.90;;;;;;5110994;28;20047;-59
2024/01/15 00:29:03;;;;;;;10.75;1.25;;;2.10;99.90;;;;;;5110962;28;20032;-59
2024/01/15 00:31:29;;;;;;;11.88;1.38;;;2.40;99.90;;;;;;5111425;28;20466;-58
2024/01/15 00:33:55;;;;;;;14.30;1.83;;;2.30;99.90;;;;;;5111313;28;20035;-61
2024/01/15 00:36:21;;;;;;;16.92;1.75;;;2.30;99.90;;;;;;5111215;28;20355;-59
2024/01/15 00:38:47;;;;;;;10.05;1.05;;;2.30;99.90;;;;;;5111089;28;20118;-60
2024/01/15 00:41:14;;;;;;;11.77;1.73;;;2.00;99.90;;;;;;5110641;28;20051;-60
2024/01/15 00:43:40;;;;;;;12.73;1.38;;;2.10;99.90;;;;;;5111045;28;20453;-59
2024/01/15 00:46:05;;;;;;;11.70;1.33;;;1.80;99.90;;;;;;5104561;28;20119;-58
2024/01/15 00:48:32;;;;;;;12.82;2.03;;;2.00;99.90;;;;;;5029200;28;20073;-58
2024/01/15 00:50:57;;;;;;;4.45;1.10;;;2.00;99.90;;;;;;5110869;28;20485;-60
2024/01/15 00:53:23;;;;;;;17.60;1.88;;;1.90;99.90;;;;;;5101196;28;20110;-61
2024/01/15 00:55:49;;;;;;;15.15;1.63;;;1.90;99.90;;;;;;5106880;28;20032;-60
2024/01/15 00:58:15;;;;;;;12.82;1.95;;;2.20;99.90;;;;;;5098714;28;20039;-58
2024/01/15 01:00:41;;;;;;;11.50;1.30;;;2.20;99.90;;;;;;5102944;28;20032;-59
2024/01/15 01:03:07;;;;;;;13.35;1.52;;;1.90;99.90;;;;;;5108054;28;20072;-59
2024/01/15 01:05:34;;;;;;;11.32;1.30;;;2.20;99.90;;;;;;5111477;28;20555;-59
2024/01/15 01:08:00;;;;;;;15.52;1.17;;;2.30;99.90;;;;;;5114535;28;20036;-60
2024/01/15 01:10:26;;;;;;;16.52;1.67;;;2.30;99.90;;;;;;5114511;28;20032;-58
2024/01/15 01:12:52;;;;;;;11.57;1.55;;;2.70;99.90;;;;;;5114476;28;20106;-59
2024/01/15 01:15:17;;;;;;;13.57;1.65;;;2.10;99.90;;;;;;5110500;28;20063;-60
2024/01/15 01:17:43;;;;;;;18.80;1.58;;;2.00;99.90;;;;;;5114104;28;20076;-58
2024/01/15 01:20:10;;;;;;;16.27;2.13;;;2.20;99.90;;;;;;5114804;28;20042;-59
2024/01/15 01:22:36;;;;;;;15.55;1.55;;;2.00;99.90;;;;;;5114383;28;20643;-59
2024/01/15 01:25:02;;;;;;;10.88;1.40;;;2.20;99.90;;;;;;5058750;28;20049;-59
2024/01/15 01:27:27;;;;;;;13.23;1.60;;;2.30;99.90;;;;;;5030538;28;20271;-58
2024/01/15 01:29:53;;;;;;;14.18;1.70;;;2.40;99.90;;;;;;5030488;28;20090;-59
2024/01/15 01:32:19;;;;;;;13.30;1.50;;;2.60;99.90;;;;;;5030928;28;20056;-59
2024/01/15 01:34:44;;;;;;;16.08;2.10;;;2.30;99.90;;;;;;5030344;28;20470;-59
2024/01/15 01:37:13;;;;;;;11.35;1.38;;;2.30;99.90;;;;;;5030821;28;20041;-58
2024/01/15 01:39:40;;;;;;;17.88;2.47;;;2.50;99.90;;;;;;5030625;28;20045;-60
2024/01/15 01:42:06;;;;;;;15.20;1.40;;;2.70;99.90;;;;;;5030624;28;20354;-58
2024/01/15 01:44:32;;;;;;;26.15;1.98;;;2.30;99.90;;;;;;5103097;28;20047;-59
2024/01/15 01:47:01;;;;;;;10.80;1.48;;;2.40;99.90;;;;;;5113996;28;20482;-59
2024/01/15 01:49:27;;;;;;;16.05;1.77;;;2.20;99.90;;;;;;5113798;28;20229;-60
2024/01/15 01:51:55;;;;;;;14.30;1.98;;;2.60;99.90;;;;;;5114383;28;20114;-60
2024/01/15 01:54:21;;;;;;;15.75;1.73;;;2.80;99.90;;;;;;5114001;28;20051;-59
2024/01/15 01:56:48;;;;;;;16.38;3.92;;;2.30;99.90;;;;;;5108404;28;20028;-59
2024/01/15 01:59:14;;;;;;;20.35;1.90;;;2.60;99.90;;;;;;5113518;28;20080;-58
2024/01/15 02:01:41;;;;;;;19.33;2.08;;;2.70;99.90;;;;;;5077776;28;20033;-59
2024/01/15 02:04:08;;;;;;;16.40;1.90;;;2.70;99.90;;;;;;5029672;28;20057;-60
2024/01/15 02:06:34;;;;;;;14.30;1.27;;;2.60;99.90;;;;;;5028708;28;20030;-60
2024/01/15 02:09:00;;;;;;;21.13;1.77;;;2.60;99.90;;;;;;5029080;28;20037;-59
2024/01/15 02:11:26;;;;;;;14.40;1.33;;;2.40;99.90;;;;;;5029967;28;20124;-59
2024/01/15 02:13:52;;;;;;;13.70;1.40;;;2.40;99.90;;;;;;5029953;28;20497;-59
2024/01/15 02:16:17;;;;;;;10.77;1.38;;;2.20;99.90;;;;;;5030124;28;20132;-60
2024/01/15 02:18:45;;;;;;;15.35;2.33;;;2.30;99.90;;;;;;5029628;28;20475;-60
2024/01/15 02:21:11;;;;;;;12.15;1.70;;;2.40;99.90;;;;;;5030040;28;20054;-59
2024/01/15 02:23:38;;;;;;;11.02;1.70;;;2.30;99.90;;;;;;5055244;28;20375;-60
2024/01/15 02:26:05;;;;;;;14.73;1.85;;;2.30;99.90;;;;;;5102048;28;20081;-60
2024/01/15 02:28:32;;;;;;;10.82;1.65;;;2.90;99.90;;;;;;5029978;28;20116;-60
2024/01/15 02:30:58;;;;;;;14.50;1.75;;;2.70;99.90;;;;;;5030165;28;20041;-61
2024/01/15 02:33:23;;;;;;;14.40;2.85;;;2.70;99.90;;;;;;5028416;28;20067;-60
2024/01/15 02:35:52;;;;;;;12.20;1.75;;;2.70;99.90;;;;;;5029818;28;20161;-60
2024/01/15 02:38:18;;;;;;;12.63;1.50;;;2.20;99.90;;;;;;5030006;28;20063;-61
2024/01/15 02:40:45;;;;;;;7.53;1.15;;;2.10;99.90;;;;;;5112789;28;20035;-60
2024/01/15 02:43:11;;;;;;;6.88;0.98;;;2.40;99.90;;;;;;5113034;28;20044;-58
2024/01/15 02:45:36;;;;;;;11.80;1.35;;;2.30;99.90;;;;;;5113249;28;20031;-59
2024/01/15 02:48:02;;;;;;;7.10;1.10;;;2.40;99.90;;;;;;5033128;28;20380;-59
2024/01/15 02:50:28;;;;;;;13.82;1.77;;;1.80;99.90;;;;;;5029319;28;20087;-59
2024/01/15 02:52:53;;;;;;;9.63;1.67;;;2.40;99.90;;;;;;5054906;28;20071;-59
2024/01/15 02:55:19;;;;;;;13.52;2.03;;;2.40;99.90;;;;;;5078835;28;20481;-59
2024/01/15 02:57:45;;;;;;;7.57;1.65;;;2.30;99.90;;;;;;5066561;28;20044;-59
2024/01/15 03:00:14;;;;;;;8.07;1.25;;;2.70;99.90;;;;;;5076068;28;20424;-60
2024/01/15 03:02:40;;;;;;;11.82;1.52;;;2.40;99.90;;;;;;5099499;28;20096;-59
2024/01/15 03:05:07;;;;;;;9.57;0.90;;;1.80;99.90;;;;;;5086208;28;20054;-59
2024/01/15 03:07:33;;;;;;;8.55;1.13;;;2.30;99.90;;;;;;5101626;28;20054;-59
2024/01/15 03:09:59;;;;;;;11.07;1.10;;;2.30;99.90;;;;;;5092860;28;20039;-59
2024/01/15 03:12:25;;;;;;;8.65;1.52;;;2.20;99.90;;;;;;5082256;28;20381;-58
2024/01/15 03:14:51;;;;;;;9.15;1.00;;;2.30;99.90;;;;;;5069171;28;20038;-60
2024/01/15 03:17:16;;;;;;;8.35;1.20;;;2.30;99.90;;;;;;5082861;28;20042;-60
2024/01/15 03:19:42;;;;;;;7.43;1.10;;;1.90;99.90;;;;;;5099940;28;20032;-60
2024/01/15 03:22:08;;;;;;;6.50;1.23;;;2.30;99.90;;;;;;5012423;28;20046;-58
2024/01/15 03:24:35;;;;;;;13.82;1.80;;;2.20;99.90;;;;;;5065752;28;20045;-59
2024/01/15 03:27:01;;;;;;;11.85;1.85;;;2.30;99.90;;;;;;5079499;28;20039;-59
2024/01/15 03:29:27;;;;;;;12.50;1.40;;;1.80;99.90;;;;;;5100025;28;20390;-59
2024/01/15 03:31:53;;;;;;;13.15;1.42;;;2.50;99.90;;;;;;5095111;28;20043;-60
2024/01/15 03:34:18;;;;;;;10.07;1.50;;;2.50;99.90;;;;;;5085437;28;20579;-60
2024/01/15 03:36:44;;;;;;;16.60;1.95;;;1.80;99.90;;;;;;5017435;28;20069;-61
2024/01/15 03:39:10;;;;;;;11.85;1.70;;;2.70;99.90;;;;;;5026374;28;20036;-60
2024/01/15 03:41:36;;;;;;;15.52;2.33;;;2.50;99.90;;;;;;5053839;28;20091;-59
2024/01/15 03:44:01;;;;;;;13.15;2.10;;;2.10;99.90;;;;;;5055779;28;20034;-60
2024/01/15 03:46:27;;;;;;;12.15;1.38;;;1.70;99.90;;;;;;5006963;28;20118;-60
2024/01/15 03:48:53;;;;;;;12.77;1.73;;;1.80;99.90;;;;;;5087284;28;20085;-60
2024/01/15 03:51:19;;;;;;;14.32;1.58;;;2.40;99.90;;;;;;5065940;28;20031;-59
2024/01/15 03:53:45;;;;;;;10.32;1.20;;;2.50;99.90;;;;;;5029784;28;20081;-59
2024/01/15 03:56:10;;;;;;;10.73;1.50;;;1.40;99.90;;;;;;5077061;28;20225;-58
2024/01/15 03:58:36;;;;;;;15.70;1.42;;;1.50;99.90;;;;;;5073054;28;20031;-60
2024/01/15 04:01:02;;;;;;;13.43;2.78;;;1.80;99.90;;;;;;5021847;28;20046;-59
2024/01/15 04:03:28;;;;;;;12.30;1.50;;;1.40;99.90;;;;;;5099898;28;20111;-58
2024/01/15 04:05:54;;;;;;;4.22;1.02;;;2.30;99.90;;;;;;5111345;28;20387;-60
2024/01/15 04:08:19;;;;;;;11.75;1.25;;;2.10;99.90;;;;;;5111460;28;20445;-60
2024/01/15 04:10:45;;;;;;;9.80;1.42;;;2.30;99.90;;;;;;5110875;28;20118;-59
2024/01/15 04:13:11;;;;;;;10.88;1.25;;;1.40;99.90;;;;;;5104707;28;20115;-60
2024/01/15 04:15:37;;;;;;;11.35;1.35;;;2.10;99.90;;;;;;5111234;28;20089;-59
2024/01/15 04:18:03;;;;;;;14.18;1.30;;;1.30;99.90;;;;;;5111091;28;20089;-59
2024/01/15 04:20:29;;;;;;;9.90;0.88;;;2.30;99.90;;;;;;5031126;28;20472;-59
2024/01/15 04:22:55;;;;;;;7.30;0.80;;;2.30;99.90;;;;;;5010298;28;20048;-60
2024/01/15 04:25:20;;;;;;;5.95;0.77;;;1.20;99.90;;;;;;5028287;28;20502;-60
2024/01/15 04:27:46;;;;;;;8.85;1.15;;;1.50;99.90;;;;;;5102951;28;20051;-61
2024/01/15 04:30:12;;;;;;;4.68;0.77;;;2.20;99.90;;;;;;5111427;28;20035;-61
2024/01/15 04:32:38;;;;;;;7.72;1.10;;;1.20;99.90;;;;;;5105564;28;20039;-61
2024/01/15 04:35:04;;;;;;;7.55;0.73;;;1.40;99.90;;;;;;5028039;28;20041;-61
2024/01/15 04:37:29;;;;;;;10.50;0.82;;;1.10;99.90;;;;;;5027890;28;20134;-60
2024/01/15 04:39:55;;;;;;;11.85;1.15;;;1.90;99.90;;;;;;5028437;28;20037;-59
2024/01/15 04:42:21;;;;;;;8.52;1.05;;;2.10;99.90;;;;;;5106866;28;20092;-58
2024/01/15 04:44:47;;;;;;;8.52;1.05;;;2.00;99.90;;;;;;5117637;27;20031;-59
2024/01/15 04:47:13;;;;;;;3.58;0.82;;;1.50;99.90;;;;;;5117892;28;20085;-59
2024/01/15 04:49:38;;;;;;;8.45;1.58;;;1.90;99.90;;;;;;5117944;27;20134;-61
2024/01/15 04:52:04;;;;;;;8.30;1.10;;;1.10;99.90;;;;;;5117957;28;20035;-59
2024/01/15 04:54:30;;;;;;;7.15;0.95;;;1.50;99.90;;;;;;5117574;27;20122;-60
2024/01/15 04:56:55;;;;;;;8.30;1.40;;;1.10;99.90;;;;;;5033726;28;20041;-61
2024/01/15 04:59:21;;;;;;;10.82;1.40;;;2.00;99.90;;;;;;5034507;28;20033;-60
2024/01/15 05:01:48;;;;;;;10.55;1.65;;;1.00;99.90;;;;;;5034279;28;20034;-60
2024/01/15 05:04:14;;;;;;;7.32;0.90;;;2.10;99.90;;;;;;5091197;28;20052;-61
2024/01/15 05:06:40;;;;;;;9.18;1.25;;;0.90;99.90;;;;;;5116428;27;20035;-60
2024/01/15 05:09:06;;;;;;;8.27;1.02;;;1.00;99.90;;;;;;5108459;27;20082;-59
2024/01/15 05:11:32;;;;;;;12.68;1.40;;;1.80;99.90;;;;;;5109848;27;20040;-61
2024/01/15 05:13:58;;;;;;;9.57;1.48;;;0.90;99.90;;;;;;5111162;27;20491;-58
2024/01/15 05:16:24;;;;;;;17.35;2.88;;;1.40;99.90;;;;;;5117574;27;20039;-59
2024/01/15 05:18:50;;;;;;;11.82;0.93;;;2.00;99.90;;;;;;5117157;27;20088;-60
2024/01/15 05:21:15;;;;;;;17.27;1.35;;;2.00;99.90;;;;;;5117647;27;20362;-60
2024/01/15 05:23:41;;;;;;;7.88;0.88;;;1.40;99.90;;;;;;5117506;28;20036;-60
2024/01/15 05:26:08;;;;;;;9.73;1.45;;;1.00;99.90;;;;;;5036602;28;20041;-60
2024/01/15 05:28:35;;;;;;;6.50;1.10;;;2.00;99.90;;;;;;5033920;28;20357;-59
2024/01/15 05:31:00;;;;;;;16.38;1.77;;;0.90;99.90;;;;;;5033840;28;20053;-60
2024/01/15 05:33:26;;;;;;;7.63;1.30;;;0.90;99.90;;;;;;5033786;28;20029;-59
2024/01/15 05:35:53;;;;;;;9.30;1.00;;;0.90;99.90;;;;;;5032376;28;20038;-59
2024/01/15 05:38:19;;;;;;;11.88;1.52;;;0.90;99.90;;;;;;5033730;28;20057;-62
2024/01/15 05:40:44;;;;;;;10.70;1.73;;;1.40;99.90;;;;;;5091197;28;20334;-60
2024/01/15 05:43:10;;;;;;;9.77;0.85;;;1.10;99.90;;;;;;5117385;27;20481;-60
2024/01/15 05:45:38;;;;;;;6.00;1.27;;;1.40;99.90;;;;;;5117491;27;20054;-61
2024/01/15 05:48:04;;;;;;;5.95;0.90;;;0.80;99.90;;;;;;5033297;28;20037;-60
2024/01/15 05:50:29;;;;;;;9.70;1.17;;;1.50;99.90;;;;;;5033941;28;20056;-61
2024/01/15 05:52:55;;;;;;;7.03;1.25;;;1.10;99.90;;;;;;5029895;28;20030;-60
2024/01/15 05:55:22;;;;;;;5.93;0.80;;;0.60;99.90;;;;;;5030308;28;20453;-60
2024/01/15 05:57:47;;;;;;;6.72;1.13;;;1.00;99.90;;;;;;5028962;28;20106;-60
2024/01/15 06:00:13;;;;;;;3.97;0.55;;;0.50;99.90;;;;;;5028503;28;20045;-59
2024/01/15 06:02:39;;;;;;;5.82;0.82;;;0.50;99.90;;;;;;5023096;28;20044;-60
2024/01/15 06:05:05;;;;;;;4.75;0.70;;;0.50;99.90;;;;;;5099329;27;20118;-58
2024/01/15 06:07:32;;;;;;;5.25;1.10;;;1.60;99.90;;;;;;5109423;28;20047;-60
2024/01/15 06:09:57;;;;;;;10.68;1.15;;;1.00;99.90;;;;;;5113709;28;20546;-60
2024/01/15 06:12:23;;;;;;;12.05;1.10;;;1.00;99.90;;;;;;5109760;28;20105;-60
2024/01/15 06:14:49;;;;;;;8.20;1.30;;;1.00;99.90;;;;;;5033746;28;20045;-58
2024/01/15 06:17:15;;;;;;;10.93;1.10;;;1.30;99.90;;;;;;5030000;28;20090;-60
2024/01/15 06:19:40;;;;;;;9.95;1.35;;;0.90;99.90;;;;;;5036650;28;20037;-60
2024/01/15 06:22:06;;;;;;;15.63;1.30;;;1.50;99.90;;;;;;5113699;28;20035;-59
2024/01/15 06:24:32;;;;;;;14.45;1.40;;;1.40;99.90;;;;;;5109673;28;20077;-60
2024/01/15 06:26:57;;;;;;;13.60;1.17;;;1.70;99.90;;;;;;5023912;28;20133;-60
2024/01/15 06:29:25;;;;;;;10.10;1.00;;;0.40;99.90;;;;;;5113328;28;20042;-61
2024/01/15 06:31:51;;;;;;;11.02;1.20;;;0.40;99.90;;;;;;5113554;28;20084;-60
2024/01/15 06:34:17;;;;;;;5.03;1.02;;;1.70;99.90;;;;;;5113358;27;20461;-59
2024/01/15 06:36:43;;;;;;;11.50;1.48;;;0.70;99.90;;;;;;5113586;28;20039;-60
2024/01/15 06:39:09;;;;;;;5.63;0.60;;;1.00;99.90;;;;;;5100552;28;20043;-59
2024/01/15 06:41:41;;;;;;;15.48;1.50;;;0.50;99.90;;;;;;5112980;28;20467;-59
2024/01/15 06:44:07;;;;;;;10.35;0.98;;;1.60;99.90;;;;;;5109606;28;20043;-61
2024/01/15 06:46:32;;;;;;;6.60;0.85;;;1.80;99.90;;;;;;5111304;28;20032;-58
2024/01/15 06:48:58;;;;;;;10.77;1.13;;;0.80;99.90;;;;;;5112553;28;20345;-60
2024/01/15 06:51:24;;;;;;;12.43;1.27;;;1.20;99.90;;;;;;5112974;28;20493;-60
2024/01/15 06:53:49;;;;;;;8.75;1.00;;;1.00;99.90;;;;;;5113074;28;20494;-61
2024/01/15 06:56:15;;;;;;;9.65;1.48;;;0.50;99.90;;;;;;5112506;28;20062;-59
2024/01/15 06:58:41;;;;;;;11.30;1.48;;;0.70;99.90;;;;;;5107466;28;20054;-60
2024/01/15 07:01:07;;;;;;;8.00;1.30;;;1.50;99.90;;;;;;5112720;28;20130;-60
2024/01/15 07:03:33;;;;;;;6.63;1.08;;;1.80;99.90;;;;;;5112167;28;20036;-59
2024/01/15 07:05:59;;;;;;;9.48;0.95;;;1.80;99.90;;;;;;5112528;28;20143;-59
2024/01/15 07:08:24;;;;;;;12.30;1.60;;;1.30;99.90;;;;;;5029425;28;20049;-59
2024/01/15 07:10:50;;;;;;;12.82;1.45;;;0.70;99.90;;;;;;5028899;28;20454;-60
2024/01/15 07:13:16;;;;;;;9.75;1.30;;;1.30;99.90;;;;;;5029268;28;20080;-58
2024/01/15 07:15:41;;;;;;;8.20;1.05;;;0.50;99.90;;;;;;5029168;28;20063;-60
2024/01/15 07:18:07;;;;;;;11.70;1.15;;;1.70;99.90;;;;;;5028834;28;20469;-59
2024/01/15 07:20:33;;;;;;;10.10;1.42;;;0.80;99.90;;;;;;5029371;28;20068;-58
2024/01/15 07:22:58;;;;;;;10.75;1.20;;;0.60;99.90;;;;;;5029246;28;20040;-61
2024/01/15 07:25:26;;;;;;;10.73;1.38;;;0.70;99.90;;;;;;5082004;28;20039;-60
2024/01/15 07:27:53;;;;;;;13.68;1.48;;;1.80;99.90;;;;;;5112372;28;20497;-59
2024/01/15 07:30:21;;;;;;;9.73;1.30;;;1.70;99.90;;;;;;5111944;28;20083;-60
2024/01/15 07:32:47;;;;;;;11.50;1.30;;;0.80;99.90;;;;;;5112595;28;20054;-60
2024/01/15 07:35:15;;;;;;;13.35;2.05;;;1.10;99.90;;;;;;5112255;28;20394;-59
2024/01/15 07:37:41;;;;;;;6.47;1.40;;;1.60;99.90;;;;;;5029816;28;20041;-60
2024/01/15 07:40:08;;;;;;;16.10;1.42;;;1.50;99.90;;;;;;5028107;28;20408;-59
2024/01/15 07:42:35;;;;;;;8.43;1.27;;;0.80;99.90;;;;;;5033418;28;20037;-59
2024/01/15 07:45:01;;;;;;;12.35;1.30;;;1.40;99.90;;;;;;5027228;28;20033;-59
2024/01/15 07:47:27;;;;;;;11.48;1.70;;;2.00;99.90;;;;;;5028787;28;20089;-59
2024/01/15 07:49:53;;;;;;;10.02;1.20;;;1.40;99.90;;;;;;5027265;28;20051;-60
2024/01/15 07:52:19;;;;;;;14.10;1.42;;;1.20;99.90;;;;;;5028766;28;20026;-60
2024/01/15 07:54:45;;;;;;;5.80;1.02;;;1.90;99.90;;;;;;5028698;28;20034;-59
2024/01/15 07:57:11;;;;;;;6.05;1.40;;;0.70;99.90;;;;;;5028853;28;20441;-59
2024/01/15 07:59:36;;;;;;;12.55;1.60;;;0.70;99.90;;;;;;5028635;28;20040;-60
2024/01/15 08:02:02;;;;;;;13.60;1.80;;;2.00;99.90;;;;;;5028798;28;20387;-59
2024/01/15 08:04:28;;;;;;;12.65;1.40;;;1.70;99.90;;;;;;5074456;28;20142;-59
2024/01/15 08:06:54;;;;;;;9.02;1.50;;;1.90;99.90;;;;;;5042658;28;20123;-59
2024/01/15 08:09:20;;;;;;;14.68;1.52;;;1.80;99.90;;;;;;5093444;28;20035;-59
2024/01/15 08:11:45;;;;;;;10.32;1.65;;;1.00;99.90;;;;;;5105693;28;20048;-59
2024/01/15 08:14:12;;;;;;;6.80;1.25;;;1.20;99.90;;;;;;5103722;28;20115;-59
2024/01/15 08:16:38;;;;;;;7.65;1.13;;;1.10;99.90;;;;;;5110795;28;20122;-59
2024/01/15 08:19:04;;;;;;;9.07;1.30;;;1.70;99.90;;;;;;5111231;28;20085;-60
2024/01/15 08:21:31;;;;;;;13.27;1.42;;;0.90;99.90;;;;;;5106024;28;20067;-59
2024/01/15 08:23:58;;;;;;;8.98;1.42;;;1.50;99.90;;;;;;5111616;28;20115;-59
2024/01/15 08:26:24;;;;;;;9.57;1.67;;;1.40;99.90;;;;;;5104323;28;20042;-59
2024/01/15 08:28:50;;;;;;;8.13;1.35;;;1.60;99.90;;;;;;5091720;28;20050;-59
2024/01/15 08:31:16;;;;;;;11.93;1.58;;;1.60;99.90;;;;;;5107782;28;20122;-58
2024/01/15 08:33:41;;;;;;;7.53;1.30;;;2.10;99.90;;;;;;5021241;28;20204;-58
2024/01/15 08:36:07;;;;;;;13.10;1.50;;;1.00;99.90;;;;;;5019179;28;20058;-60
2024/01/15 08:38:33;;;;;;;11.75;1.77;;;1.10;99.90;;;;;;5023249;28;20030;-61
2024/01/15 08:41:00;;;;;;;11.43;1.58;;;1.20;99.90;;;;;;5013809;28;20090;-60
2024/01/15 08:43:26;;;;;;;14.05;1.30;;;1.10;99.90;;;;;;5019141;28;20045;-59
2024/01/15 08:45:52;;;;;;;10.98;1.50;;;1.60;99.90;;;;;;5030696;28;20092;-60
2024/01/15 08:48:18;;;;;;;13.85;1.30;;;2.20;99.90;;;;;;5031373;28;20036;-58
2024/01/15 08:50:47;;;;;;;8.48;0.90;;;1.10;99.90;;;;;;5002408;28;20038;-59
2024/01/15 08:53:13;;;;;;;7.18;1.20;;;1.40;99.90;;;;;;5028994;28;20041;-58
2024/01/15 08:55:39;;;;;;;11.63;1.35;;;1.90;99.90;;;;;;5018444;28;20123;-60
2024/01/15 08:58:06;;;;;;;10.63;1.30;;;2.10;99.90;;;;;;5016035;28;20030;-57
2024/01/15 09:00:31;;;;;;;6.10;1.40;;;2.20;99.90;;;;;;5001978;28;20069;-59
2024/01/15 09:02:57;;;;;;;13.07;1.90;;;2.20;99.90;;;;;;5035487;28;20086;-61
2024/01/15 09:05:23;;;;;;;19.10;2.58;;;1.90;99.90;;;;;;5028694;28;20115;-60
2024/01/15 09:07:48;;;;;;;11.73;2.20;;;2.10;99.90;;;;;;5017407;28;20053;-58
2024/01/15 09:10:14;;;;;;;17.38;3.53;;;1.10;99.90;;;;;;5021343;28;20034;-59
2024/01/15 09:12:40;;;;;;;21.08;3.85;;;2.20;99.90;;;;;;5035201;28;20449;-60
2024/01/15 09:15:06;;;;;;;13.20;2.30;;;1.30;99.90;;;;;;5020330;28;20054;-59
2024/01/15 09:17:32;;;;;;;13.18;1.83;;;1.40;99.90;;;;;;5016111;28;20515;-60
2024/01/15 09:19:58;;;;;;;9.82;1.65;;;1.40;99.90;;;;;;5020095;28;20031;-60
2024/01/15 09:22:23;;;;;;;9.48;1.40;;;2.20;99.90;;;;;;5028960;28;20041;-59
2024/01/15 09:24:49;;;;;;;9.38;1.40;;;1.80;99.90;;;;;;5022036;28;20034;-60
2024/01/15 09:27:15;;;;;;;9.90;1.25;;;1.40;99.90;;;;;;5025592;28;20082;-59
2024/01/15 09:29:43;;;;;;;8.60;1.20;;;1.60;99.90;;;;;;5023590;28;20524;-58
2024/01/15 09:32:09;;;;;;;9.57;0.90;;;2.20;99.90;;;;;;5021359;28;20050;-58
2024/01/15 09:34:35;;;;;;;4.38;1.27;;;1.60;99.90;;;;;;5023561;28;20056;-58
2024/01/15 09:37:01;;;;;;;7.10;0.80;;;2.10;99.90;;;;;;5024885;28;20109;-59
2024/01/15 09:39:27;;;;;;;5.18;0.80;;;1.70;99.90;;;;;;5002728;28;20087;-58
2024/01/15 09:41:54;;;;;;;6.90;0.88;;;1.70;99.90;;;;;;5030678;28;20042;-60
2024/01/15 09:44:21;;;;;;;2.92;0.60;;;2.40;99.90;;;;;;5005093;28;20024;-59
2024/01/15 09:46:50;;;;;;;3.90;0.70;;;1.60;99.90;;;;;;5023044;28;20048;-59
2024/01/15 09:49:16;;;;;;;5.55;0.60;;;2.40;99.90;;;;;;5022256;28;20038;-58
2024/01/15 09:51:42;;;;;;;5.07;1.10;;;2.30;99.90;;;;;;5019122;28;20095;-58
2024/01/15 09:54:09;;;;;;;3.08;0.57;;;1.70;99.90;;;;;;5034729;28;20026;-59
2024/01/15 09:56:35;;;;;;;3.85;0.60;;;2.10;99.90;;;;;;5036169;28;20064;-58
2024/01/15 09:59:03;;;;;;;5.45;0.75;;;1.20;99.90;;;;;;5030493;28;20446;-59
2024/01/15 10:01:31;;;;;;;3.78;0.60;;;1.60;99.90;;;;;;5016928;28;20052;-59
2024/01/15 10:03:58;;;;;;;4.45;0.60;;;1.20;99.90;;;;;;5020419;28;20050;-59
2024/01/15 10:06:27;;;;;;;5.97;0.70;;;1.80;99.90;;;;;;5016533;28;20082;-60
2024/01/15 10:08:55;;;;;;;6.35;0.80;;;1.20;99.90;;;;;;5027940;28;20046;-60
2024/01/15 10:11:21;;;;;;;5.35;0.95;;;2.10;99.90;;;;;;5026103;28;20036;-58
2024/01/15 10:13:50;;;;;;;6.80;0.88;;;2.10;99.90;;;;;;5023075;28;20048;-60
2024/01/15 10:16:16;;;;;;;8.77;1.00;;;1.20;99.90;;;;;;5008911;28;20047;-59
2024/01/15 10:18:42;;;;;;;6.43;0.95;;;2.30;99.90;;;;;;5022629;28;20368;-59
2024/01/15 10:21:08;;;;;;;7.78;1.05;;;2.50;99.90;;;;;;4999644;28;20038;-58
2024/01/15 10:23:33;;;;;;;7.15;1.10;;;2.50;99.90;;;;;;5019466;28;20483;-58
2024/01/15 10:26:00;;;;;;;9.93;1.10;;;2.70;99.90;;;;;;5026203;28;20398;-58
2024/01/15 10:28:27;;;;;;;7.60;1.00;;;2.30;99.90;;;;;;5016675;28;20049;-60
2024/01/15 10:30:57;;;;;;;13.15;1.45;;;1.90;99.90;;;;;;5004872;28;20038;-58
2024/01/15 10:33:25;;;;;;;8.73;1.00;;;2.40;99.90;;;;;;5030097;28;20044;-59
2024/01/15 10:35:55;;;;;;;11.43;0.90;;;2.00;99.90;;;;;;5033342;28;20517;-60
2024/01/15 10:38:22;;;;;;;10.35;1.23;;;2.10;99.90;;;;;;5021167;28;20806;-61
2024/01/15 10:40:57;;;;;;;8.73;1.30;;;2.60;99.90;;;;;;4999942;28;20121;-58
2024/01/15 10:43:23;;;;;;;7.00;1.63;;;2.80;99.90;;;;;;5005906;28;20037;-60
2024/01/15 10:45:50;;;;;;;12.80;1.48;;;1.90;99.90;;;;;;5030205;28;20036;-60
2024/01/15 10:48:18;;;;;;;7.55;1.10;;;2.10;99.90;;;;;;4984449;28;20478;-59
2024/01/15 10:50:45;;;;;;;8.35;1.42;;;2.50;99.90;;;;;;4996837;28;20140;-58
2024/01/15 10:53:12;;;;;;;14.43;1.50;;;2.00;99.90;;;;;;5001003;28;20044;-59
2024/01/15 10:55:39;;;;;;;5.13;0.88;;;2.20;99.90;;;;;;5031505;28;20132;-61
2024/01/15 10:58:07;;;;;;;7.72;1.10;;;2.70;99.90;;;;;;5028419;28;20094;-59
2024/01/15 11:00:40;;;;;;;5.95;1.02;;;2.40;99.90;;;;;;5019761;28;20473;-59
2024/01/15 11:03:06;;;;;;;6.07;0.82;;;2.10;99.90;;;;;;5011961;28;20045;-60
2024/01/15 11:05:39;;;;;;;5.78;0.70;;;2.50;99.90;;;;;;5004889;28;20045;-59
2024/01/15 11:08:08;;;;;;;4.95;0.60;;;1.70;99.90;;;;;;5026139;28;20046;-59
2024/01/15 11:10:42;;;;;;;2.90;0.55;;;1.60;99.90;;;;;;5024284;28;20049;-57
2024/01/15 11:13:15;;;;;;;3.83;0.50;;;1.60;99.90;;;;;;5017235;28;20439;-59
2024/01/15 11:15:57;;;;;;;3.08;0.60;;;1.20;99.90;;;;;;5096807;28;20039;-58
2024/01/15 11:18:23;;;;;;;2.30;0.47;;;1.00;99.90;;;;;;5094910;28;20031;-61
2024/01/15 11:21:16;;;;;;;3.28;0.47;;;1.00;99.90;;;;;;5084501;28;20094;-58
2024/01/15 11:23:44;;;;;;;20.35;3.15;;;1.80;99.90;;;;;;5068422;28;20029;-60
2024/01/15 11:26:30;;;;;;;16.35;3.25;;;0.90;99.90;;;;;;5017414;28;20339;-59
2024/01/15 11:29:01;;;;;;;3.60;0.63;;;1.80;99.90;;;;;;5059773;28;20053;-58
2024/01/15 11:31:49;;;;;;;3.25;0.50;;;1.60;99.90;;;;;;5041642;28;20038;-55
2024/01/15 11:34:15;;;;;;;5.13;0.52;;;1.30;99.90;;;;;;5027838;28;20440;-59
2024/01/15 11:36:53;;;;;;;2.50;0.50;;;1.10;99.90;;;;;;5076419;28;20034;-57
2024/01/15 11:39:27;;;;;;;5.40;0.70;;;1.20;99.90;;;;;;5051891;28;20038;-60
2024/01/15 11:42:03;;;;;;;7.00;0.85;;;1.00;99.90;;;;;;5052607;28;20042;-58
2024/01/15 11:44:29;;;;;;;6.13;1.25;;;1.10;99.90;;;;;;5080913;28;20498;-58
2024/01/15 11:47:03;;;;;;;11.88;1.00;;;2.10;99.90;;;;;;5080299;28;20067;-59
2024/01/15 11:49:34;;;;;;;11.00;1.30;;;1.90;99.90;;;;;;5057142;28;20038;-58
2024/01/15 11:52:03;;;;;;;5.20;0.90;;;2.40;99.90;;;;;;5065287;28;20043;-57
2024/01/15 11:54:33;;;;;;;7.88;1.92;;;1.90;99.90;;;;;;5012785;28;20565;-58
2024/01/15 11:57:03;;;;;;;14.50;1.25;;;2.70;99.90;;;;;;5047753;28;20038;-61
2024/01/15 11:59:29;;;;;;;14.50;1.27;;;3.10;99.90;;;;;;5058113;28;20114;-60
2024/01/15 12:01:56;;;;;;;16.95;1.90;;;3.70;99.90;;;;;;5014998;28;20203;-59
2024/01/15 12:04:21;;;;;;;8.13;1.95;;;3.00;99.90;;;;;;5048171;28;20157;-57
2024/01/15 12:06:47;;;;;;;11.18;1.70;;;3.50;99.90;;;;;;5062851;28;20122;-59
2024/01/15 12:09:13;;;;;;;9.05;1.73;;;3.50;99.90;;;;;;5075633;28;20046;-58
2024/01/15 12:11:46;;;;;;;12.10;1.80;;;3.60;99.90;;;;;;5049244;28;20042;-59
2024/01/15 12:14:12;;;;;;;9.00;1.40;;;4.10;99.90;;;;;;5053315;28;20045;-60
2024/01/15 12:16:38;;;;;;;10.65;1.35;;;4.40;99.90;;;;;;5095902;28;20047;-60
2024/01/15 12:19:04;;;;;;;10.57;1.27;;;4.30;99.90;;;;;;5014886;28;20112;-59
2024/01/15 12:21:29;;;;;;;8.80;1.40;;;4.30;99.90;;;;;;5061713;28;20042;-59
2024/01/15 12:23:56;;;;;;;7.55;0.90;;;4.30;99.90;;;;;;5028054;28;20357;-60
2024/01/15 12:26:22;;;;;;;8.15;1.50;;;4.30;99.90;;;;;;5105068;28;20051;-57
2024/01/15 12:28:51;;;;;;;8.80;1.40;;;4.00;99.90;;;;;;5089187;28;20041;-57
2024/01/15 12:31:16;;;;;;;8.52;1.40;;;3.30;99.90;;;;;;5067890;28;20088;-60
2024/01/15 12:33:42;;;;;;;11.13;1.70;;;2.80;99.90;;;;;;5088509;28;20032;-60
2024/01/15 12:36:08;;;;;;;11.45;1.20;;;3.00;99.90;;;;;;5108211;28;20055;-60
2024/01/15 12:38:33;;;;;;;7.68;1.20;;;2.90;99.90;;;;;;5090907;28;20034;-59
2024/01/15 12:41:00;;;;;;;9.48;1.25;;;2.10;99.90;;;;;;5069758;28;20088;-60
2024/01/15 12:43:27;;;;;;;7.63;1.10;;;2.80;99.90;;;;;;5071101;28;20050;-59
2024/01/15 12:45:53;;;;;;;10.15;1.00;;;2.80;99.90;;;;;;5072451;28;20375;-60
2024/01/15 12:48:19;;;;;;;7.13;1.17;;;2.60;99.90;;;;;;5096102;28;20038;-60